sensor_id;sensor_type;location;lat;lon;timestamp;P1;durP1;ratioP1;P2;durP2;ratioP2
357;SDS011;167;47.558;7.602;2024-03-02T00:01:32;8.00;;;7.30;;
357;SDS011;167;47.558;7.602;2024-03-02T00:03:58;8.57;;;7.87;;
357;SDS011;167;47.558;7.602;2024-03-02T00:06:24;8.13;;;7.43;;
357;SDS011;167;47.558;7.602;2024-03-02T00:08:50;6.77;;;6.23;;
357;SDS011;167;47.558;7.602;2024-03-02T00:11:17;8.23;;;7.50;;
357;SDS011;167;47.558;7.602;2024-03-02T00:13:44;7.70;;;7.00;;
357;SDS011;167;47.558;7.602;2024-03-02T00:16:11;7.90;;;7.10;;
357;SDS011;167;47.558;7.602;2024-03-02T00:18:37;9.00;;;6.60;;
357;SDS011;167;47.558;7.602;2024-03-02T00:21:03;7.50;;;6.80;;
357;SDS011;167;47.558;7.602;2024-03-02T00:23:31;7.93;;;7.23;;
357;SDS011;167;47.558;7.602;2024-03-02T00:25:58;8.00;;;7.40;;
357;SDS011;167;47.558;7.602;2024-03-02T00:30:58;8.03;;;7.43;;
357;SDS011;167;47.558;7.602;2024-03-02T00:33:26;8.30;;;7.13;;
357;SDS011;167;47.558;7.602;2024-03-02T00:35:53;9.33;;;8.43;;
357;SDS011;167;47.558;7.602;2024-03-02T00:38:19;8.10;;;7.40;;
357;SDS011;167;47.558;7.602;2024-03-02T00:40:45;7.37;;;6.77;;
357;SDS011;167;47.558;7.602;2024-03-02T00:45:56;7.90;;;7.20;;
357;SDS011;167;47.558;7.602;2024-03-02T00:48:22;9.23;;;8.43;;
357;SDS011;167;47.558;7.602;2024-03-02T00:50:52;7.80;;;7.20;;
357;SDS011;167;47.558;7.602;2024-03-02T00:53:18;8.00;;;7.40;;
357;SDS011;167;47.558;7.602;2024-03-02T00:55:49;7.87;;;7.27;;
357;SDS011;167;47.558;7.602;2024-03-02T00:58:15;9.80;;;7.90;;
357;SDS011;167;47.558;7.602;2024-03-02T01:00:41;8.47;;;7.60;;
357;SDS011;167;47.558;7.602;2024-03-02T01:03:07;10.07;;;9.20;;
357;SDS011;167;47.558;7.602;2024-03-02T01:05:33;11.73;;;8.30;;
357;SDS011;167;47.558;7.602;2024-03-02T01:08:00;9.57;;;8.67;;
357;SDS011;167;47.558;7.602;2024-03-02T01:10:26;8.87;;;8.03;;
357;SDS011;167;47.558;7.602;2024-03-02T01:12:52;8.83;;;8.03;;
357;SDS011;167;47.558;7.602;2024-03-02T01:15:18;9.33;;;8.63;;
357;SDS011;167;47.558;7.602;2024-03-02T01:17:44;9.93;;;8.93;;
357;SDS011;167;47.558;7.602;2024-03-02T01:20:10;10.60;;;9.60;;
357;SDS011;167;47.558;7.602;2024-03-02T01:22:36;8.70;;;8.00;;
357;SDS011;167;47.558;7.602;2024-03-02T01:25:03;9.57;;;8.77;;
357;SDS011;167;47.558;7.602;2024-03-02T01:27:29;8.87;;;8.17;;
357;SDS011;167;47.558;7.602;2024-03-02T01:29:55;7.97;;;7.33;;
357;SDS011;167;47.558;7.602;2024-03-02T01:32:20;7.93;;;7.23;;
357;SDS011;167;47.558;7.602;2024-03-02T01:34:46;9.77;;;8.90;;
357;SDS011;167;47.558;7.602;2024-03-02T01:37:12;9.37;;;8.50;;
357;SDS011;167;47.558;7.602;2024-03-02T01:39:39;8.10;;;7.37;;
357;SDS011;167;47.558;7.602;2024-03-02T01:42:05;10.27;;;9.37;;
357;SDS011;167;47.558;7.602;2024-03-02T01:44:31;9.27;;;8.37;;
357;SDS011;167;47.558;7.602;2024-03-02T01:46:57;8.80;;;8.00;;
357;SDS011;167;47.558;7.602;2024-03-02T01:49:23;8.17;;;7.50;;
357;SDS011;167;47.558;7.602;2024-03-02T01:51:49;9.73;;;8.80;;
357;SDS011;167;47.558;7.602;2024-03-02T01:54:15;8.57;;;7.87;;
357;SDS011;167;47.558;7.602;2024-03-02T01:56:41;9.87;;;8.97;;
357;SDS011;167;47.558;7.602;2024-03-02T01:59:07;8.87;;;8.07;;
357;SDS011;167;47.558;7.602;2024-03-02T02:01:33;8.30;;;7.50;;
357;SDS011;167;47.558;7.602;2024-03-02T02:03:59;8.80;;;8.00;;
357;SDS011;167;47.558;7.602;2024-03-02T02:06:25;9.23;;;8.33;;
357;SDS011;167;47.558;7.602;2024-03-02T02:08:51;8.70;;;7.90;;
357;SDS011;167;47.558;7.602;2024-03-02T02:11:17;8.40;;;7.60;;
357;SDS011;167;47.558;7.602;2024-03-02T02:13:43;8.50;;;7.80;;
357;SDS011;167;47.558;7.602;2024-03-02T02:16:09;10.13;;;9.10;;
357;SDS011;167;47.558;7.602;2024-03-02T02:18:35;8.93;;;8.13;;
357;SDS011;167;47.558;7.602;2024-03-02T02:21:02;8.43;;;7.60;;
357;SDS011;167;47.558;7.602;2024-03-02T02:23:28;9.70;;;8.70;;
357;SDS011;167;47.558;7.602;2024-03-02T02:25:54;9.27;;;8.40;;
357;SDS011;167;47.558;7.602;2024-03-02T02:28:20;10.53;;;9.57;;
357;SDS011;167;47.558;7.602;2024-03-02T02:30:46;10.30;;;9.30;;
357;SDS011;167;47.558;7.602;2024-03-02T02:33:12;9.20;;;8.30;;
357;SDS011;167;47.558;7.602;2024-03-02T02:35:38;8.90;;;8.00;;
357;SDS011;167;47.558;7.602;2024-03-02T02:38:04;10.33;;;9.47;;
357;SDS011;167;47.558;7.602;2024-03-02T02:40:31;10.93;;;9.93;;
357;SDS011;167;47.558;7.602;2024-03-02T02:42:58;9.50;;;8.60;;
357;SDS011;167;47.558;7.602;2024-03-02T02:45:24;10.00;;;9.10;;
357;SDS011;167;47.558;7.602;2024-03-02T02:47:50;8.87;;;8.07;;
357;SDS011;167;47.558;7.602;2024-03-02T02:50:16;10.23;;;8.67;;
357;SDS011;167;47.558;7.602;2024-03-02T02:52:42;10.97;;;8.50;;
357;SDS011;167;47.558;7.602;2024-03-02T02:55:09;10.40;;;9.40;;
357;SDS011;167;47.558;7.602;2024-03-02T02:57:36;9.67;;;8.77;;
357;SDS011;167;47.558;7.602;2024-03-02T03:00:07;10.40;;;9.40;;
357;SDS011;167;47.558;7.602;2024-03-02T03:02:42;11.70;;;10.20;;
357;SDS011;167;47.558;7.602;2024-03-02T03:05:11;9.90;;;9.00;;
357;SDS011;167;47.558;7.602;2024-03-02T03:07:41;8.83;;;8.07;;
357;SDS011;167;47.558;7.602;2024-03-02T03:10:07;10.20;;;9.30;;
357;SDS011;167;47.558;7.602;2024-03-02T03:12:33;9.77;;;8.83;;
357;SDS011;167;47.558;7.602;2024-03-02T03:15:00;10.00;;;9.10;;
357;SDS011;167;47.558;7.602;2024-03-02T03:17:26;9.60;;;8.57;;
357;SDS011;167;47.558;7.602;2024-03-02T03:19:52;9.30;;;8.50;;
357;SDS011;167;47.558;7.602;2024-03-02T03:22:18;9.83;;;8.93;;
357;SDS011;167;47.558;7.602;2024-03-02T03:24:44;10.00;;;9.07;;
357;SDS011;167;47.558;7.602;2024-03-02T03:27:10;9.40;;;8.50;;
357;SDS011;167;47.558;7.602;2024-03-02T03:29:36;8.40;;;7.60;;
357;SDS011;167;47.558;7.602;2024-03-02T03:32:03;8.17;;;7.50;;
357;SDS011;167;47.558;7.602;2024-03-02T03:34:29;9.00;;;7.93;;
357;SDS011;167;47.558;7.602;2024-03-02T03:36:57;9.00;;;8.10;;
357;SDS011;167;47.558;7.602;2024-03-02T03:39:23;9.50;;;8.50;;
357;SDS011;167;47.558;7.602;2024-03-02T03:41:50;8.47;;;7.80;;
357;SDS011;167;47.558;7.602;2024-03-02T03:44:16;11.33;;;8.40;;
357;SDS011;167;47.558;7.602;2024-03-02T03:46:42;13.20;;;9.53;;
357;SDS011;167;47.558;7.602;2024-03-02T03:49:08;9.93;;;9.03;;
357;SDS011;167;47.558;7.602;2024-03-02T03:51:34;9.20;;;8.30;;
357;SDS011;167;47.558;7.602;2024-03-02T03:54:00;10.27;;;9.27;;
357;SDS011;167;47.558;7.602;2024-03-02T03:56:26;9.80;;;8.80;;
357;SDS011;167;47.558;7.602;2024-03-02T03:58:52;10.13;;;9.17;;
357;SDS011;167;47.558;7.602;2024-03-02T04:01:18;9.27;;;8.33;;
357;SDS011;167;47.558;7.602;2024-03-02T04:03:44;9.60;;;8.70;;
357;SDS011;167;47.558;7.602;2024-03-02T04:06:10;7.80;;;7.00;;
357;SDS011;167;47.558;7.602;2024-03-02T04:08:36;9.83;;;8.83;;
357;SDS011;167;47.558;7.602;2024-03-02T04:11:03;9.93;;;9.00;;
357;SDS011;167;47.558;7.602;2024-03-02T04:13:29;8.90;;;8.00;;
357;SDS011;167;47.558;7.602;2024-03-02T04:15:55;8.60;;;7.80;;
357;SDS011;167;47.558;7.602;2024-03-02T04:18:21;9.33;;;8.43;;
357;SDS011;167;47.558;7.602;2024-03-02T04:20:47;9.37;;;8.57;;
357;SDS011;167;47.558;7.602;2024-03-02T04:23:13;8.07;;;7.27;;
357;SDS011;167;47.558;7.602;2024-03-02T04:25:39;8.83;;;8.03;;
357;SDS011;167;47.558;7.602;2024-03-02T04:28:05;10.07;;;9.07;;
357;SDS011;167;47.558;7.602;2024-03-02T04:30:31;20.43;;;9.00;;
357;SDS011;167;47.558;7.602;2024-03-02T04:32:57;9.63;;;8.70;;
357;SDS011;167;47.558;7.602;2024-03-02T04:35:23;9.60;;;8.77;;
357;SDS011;167;47.558;7.602;2024-03-02T04:37:50;7.40;;;6.70;;
357;SDS011;167;47.558;7.602;2024-03-02T04:40:16;9.00;;;8.10;;
357;SDS011;167;47.558;7.602;2024-03-02T04:42:42;9.10;;;8.30;;
357;SDS011;167;47.558;7.602;2024-03-02T04:45:08;9.17;;;7.70;;
357;SDS011;167;47.558;7.602;2024-03-02T04:47:34;9.03;;;8.17;;
357;SDS011;167;47.558;7.602;2024-03-02T04:50:00;10.50;;;9.50;;
357;SDS011;167;47.558;7.602;2024-03-02T04:52:26;9.03;;;8.13;;
357;SDS011;167;47.558;7.602;2024-03-02T04:54:52;8.77;;;7.87;;
357;SDS011;167;47.558;7.602;2024-03-02T04:57:37;8.93;;;8.03;;
357;SDS011;167;47.558;7.602;2024-03-02T05:00:03;9.77;;;7.80;;
357;SDS011;167;47.558;7.602;2024-03-02T05:02:32;9.73;;;8.13;;
357;SDS011;167;47.558;7.602;2024-03-02T05:04:58;8.30;;;7.40;;
357;SDS011;167;47.558;7.602;2024-03-02T05:07:24;8.47;;;7.77;;
357;SDS011;167;47.558;7.602;2024-03-02T05:09:49;9.50;;;8.60;;
357;SDS011;167;47.558;7.602;2024-03-02T05:12:15;7.60;;;7.00;;
357;SDS011;167;47.558;7.602;2024-03-02T05:15:00;8.60;;;7.80;;
357;SDS011;167;47.558;7.602;2024-03-02T05:17:27;9.30;;;8.40;;
357;SDS011;167;47.558;7.602;2024-03-02T05:19:53;8.03;;;7.30;;
357;SDS011;167;47.558;7.602;2024-03-02T05:22:19;8.57;;;7.87;;
357;SDS011;167;47.558;7.602;2024-03-02T05:24:45;9.23;;;8.33;;
357;SDS011;167;47.558;7.602;2024-03-02T05:27:10;8.37;;;7.67;;
357;SDS011;167;47.558;7.602;2024-03-02T05:29:36;7.83;;;7.20;;
357;SDS011;167;47.558;7.602;2024-03-02T05:32:02;8.77;;;8.03;;
357;SDS011;167;47.558;7.602;2024-03-02T05:34:28;7.60;;;7.00;;
357;SDS011;167;47.558;7.602;2024-03-02T05:36:55;8.40;;;7.60;;
357;SDS011;167;47.558;7.602;2024-03-02T05:39:22;8.80;;;8.00;;
357;SDS011;167;47.558;7.602;2024-03-02T05:41:48;8.23;;;7.53;;
357;SDS011;167;47.558;7.602;2024-03-02T05:44:14;8.53;;;7.77;;
357;SDS011;167;47.558;7.602;2024-03-02T05:46:41;7.97;;;7.33;;
357;SDS011;167;47.558;7.602;2024-03-02T05:49:07;8.53;;;7.73;;
357;SDS011;167;47.558;7.602;2024-03-02T05:51:34;9.27;;;8.37;;
357;SDS011;167;47.558;7.602;2024-03-02T05:54:00;9.33;;;8.47;;
357;SDS011;167;47.558;7.602;2024-03-02T05:56:27;10.27;;;7.43;;
357;SDS011;167;47.558;7.602;2024-03-02T05:58:54;7.97;;;7.17;;
357;SDS011;167;47.558;7.602;2024-03-02T06:01:38;8.43;;;7.63;;
357;SDS011;167;47.558;7.602;2024-03-02T06:04:05;10.60;;;9.70;;
357;SDS011;167;47.558;7.602;2024-03-02T06:06:31;9.80;;;8.83;;
357;SDS011;167;47.558;7.602;2024-03-02T06:08:59;7.40;;;6.80;;
357;SDS011;167;47.558;7.602;2024-03-02T06:11:25;8.77;;;7.97;;
357;SDS011;167;47.558;7.602;2024-03-02T06:13:50;8.03;;;7.30;;
357;SDS011;167;47.558;7.602;2024-03-02T06:16:16;7.63;;;6.93;;
357;SDS011;167;47.558;7.602;2024-03-02T06:18:42;9.10;;;8.30;;
357;SDS011;167;47.558;7.602;2024-03-02T06:21:08;7.27;;;6.67;;
357;SDS011;167;47.558;7.602;2024-03-02T06:23:34;9.03;;;8.23;;
357;SDS011;167;47.558;7.602;2024-03-02T06:26:00;7.37;;;6.67;;
357;SDS011;167;47.558;7.602;2024-03-02T06:28:27;8.03;;;7.23;;
357;SDS011;167;47.558;7.602;2024-03-02T06:30:54;7.57;;;6.93;;
357;SDS011;167;47.558;7.602;2024-03-02T06:33:19;7.87;;;7.17;;
357;SDS011;167;47.558;7.602;2024-03-02T06:35:45;7.77;;;7.13;;
357;SDS011;167;47.558;7.602;2024-03-02T06:38:11;7.73;;;7.03;;
357;SDS011;167;47.558;7.602;2024-03-02T06:40:37;7.50;;;6.90;;
357;SDS011;167;47.558;7.602;2024-03-02T06:43:04;8.00;;;7.30;;
357;SDS011;167;47.558;7.602;2024-03-02T06:45:30;7.83;;;7.00;;
357;SDS011;167;47.558;7.602;2024-03-02T06:47:56;7.63;;;7.03;;
357;SDS011;167;47.558;7.602;2024-03-02T06:50:22;7.63;;;7.00;;
357;SDS011;167;47.558;7.602;2024-03-02T06:52:48;6.47;;;5.97;;
357;SDS011;167;47.558;7.602;2024-03-02T06:55:14;7.90;;;7.20;;
357;SDS011;167;47.558;7.602;2024-03-02T06:57:40;7.10;;;6.50;;
357;SDS011;167;47.558;7.602;2024-03-02T07:00:06;8.80;;;8.00;;
357;SDS011;167;47.558;7.602;2024-03-02T07:02:34;6.67;;;6.07;;
357;SDS011;167;47.558;7.602;2024-03-02T07:05:02;7.53;;;6.93;;
357;SDS011;167;47.558;7.602;2024-03-02T07:07:28;7.07;;;6.47;;
357;SDS011;167;47.558;7.602;2024-03-02T07:09:54;7.53;;;6.83;;
357;SDS011;167;47.558;7.602;2024-03-02T07:12:20;8.47;;;7.57;;
357;SDS011;167;47.558;7.602;2024-03-02T07:14:46;7.73;;;6.23;;
357;SDS011;167;47.558;7.602;2024-03-02T07:17:27;7.27;;;6.40;;
357;SDS011;167;47.558;7.602;2024-03-02T07:19:53;7.70;;;7.00;;
357;SDS011;167;47.558;7.602;2024-03-02T07:22:19;7.63;;;7.00;;
357;SDS011;167;47.558;7.602;2024-03-02T07:24:45;8.30;;;7.50;;
357;SDS011;167;47.558;7.602;2024-03-02T07:27:12;7.77;;;7.10;;
357;SDS011;167;47.558;7.602;2024-03-02T07:29:39;7.10;;;6.20;;
357;SDS011;167;47.558;7.602;2024-03-02T07:32:05;8.47;;;7.73;;
357;SDS011;167;47.558;7.602;2024-03-02T07:34:31;6.53;;;5.93;;
357;SDS011;167;47.558;7.602;2024-03-02T07:36:57;7.00;;;6.43;;
357;SDS011;167;47.558;7.602;2024-03-02T07:39:23;7.70;;;7.00;;
357;SDS011;167;47.558;7.602;2024-03-02T07:41:49;7.23;;;6.63;;
357;SDS011;167;47.558;7.602;2024-03-02T07:44:16;8.20;;;7.50;;
357;SDS011;167;47.558;7.602;2024-03-02T07:46:44;7.90;;;7.20;;
357;SDS011;167;47.558;7.602;2024-03-02T07:49:11;7.10;;;6.40;;
357;SDS011;167;47.558;7.602;2024-03-02T07:51:39;6.70;;;6.13;;
357;SDS011;167;47.558;7.602;2024-03-02T07:54:05;7.57;;;6.87;;
357;SDS011;167;47.558;7.602;2024-03-02T07:56:31;7.47;;;6.77;;
357;SDS011;167;47.558;7.602;2024-03-02T07:58:57;8.43;;;7.67;;
357;SDS011;167;47.558;7.602;2024-03-02T08:01:26;7.03;;;6.50;;
357;SDS011;167;47.558;7.602;2024-03-02T08:03:52;7.50;;;6.73;;
357;SDS011;167;47.558;7.602;2024-03-02T08:06:20;8.47;;;7.07;;
357;SDS011;167;47.558;7.602;2024-03-02T08:08:47;8.63;;;7.83;;
357;SDS011;167;47.558;7.602;2024-03-02T08:11:13;6.40;;;5.80;;
357;SDS011;167;47.558;7.602;2024-03-02T08:13:38;7.33;;;6.73;;
357;SDS011;167;47.558;7.602;2024-03-02T08:16:05;7.43;;;6.70;;
357;SDS011;167;47.558;7.602;2024-03-02T08:18:34;8.23;;;7.47;;
357;SDS011;167;47.558;7.602;2024-03-02T08:21:00;7.43;;;6.73;;
357;SDS011;167;47.558;7.602;2024-03-02T08:23:26;7.40;;;6.80;;
357;SDS011;167;47.558;7.602;2024-03-02T08:25:52;6.77;;;6.17;;
357;SDS011;167;47.558;7.602;2024-03-02T08:28:18;7.70;;;7.00;;
357;SDS011;167;47.558;7.602;2024-03-02T08:30:45;6.37;;;5.97;;
357;SDS011;167;47.558;7.602;2024-03-02T08:33:11;7.67;;;6.03;;
357;SDS011;167;47.558;7.602;2024-03-02T08:35:37;7.63;;;6.93;;
357;SDS011;167;47.558;7.602;2024-03-02T08:38:03;7.00;;;6.30;;
357;SDS011;167;47.558;7.602;2024-03-02T08:40:29;6.77;;;6.27;;
357;SDS011;167;47.558;7.602;2024-03-02T08:42:55;6.10;;;5.60;;
357;SDS011;167;47.558;7.602;2024-03-02T08:45:21;5.63;;;5.13;;
357;SDS011;167;47.558;7.602;2024-03-02T08:47:47;6.00;;;5.40;;
357;SDS011;167;47.558;7.602;2024-03-02T08:50:13;5.50;;;5.00;;
357;SDS011;167;47.558;7.602;2024-03-02T08:52:40;5.43;;;5.03;;
357;SDS011;167;47.558;7.602;2024-03-02T08:55:06;4.90;;;4.50;;
357;SDS011;167;47.558;7.602;2024-03-02T08:57:32;4.60;;;4.30;;
357;SDS011;167;47.558;7.602;2024-03-02T08:59:58;5.77;;;5.20;;
357;SDS011;167;47.558;7.602;2024-03-02T09:02:25;5.30;;;4.90;;
357;SDS011;167;47.558;7.602;2024-03-02T09:04:51;4.43;;;4.13;;
357;SDS011;167;47.558;7.602;2024-03-02T09:07:17;4.37;;;4.07;;
357;SDS011;167;47.558;7.602;2024-03-02T09:09:43;5.60;;;5.10;;
357;SDS011;167;47.558;7.602;2024-03-02T09:12:09;5.00;;;4.60;;
357;SDS011;167;47.558;7.602;2024-03-02T09:14:36;5.40;;;5.00;;
357;SDS011;167;47.558;7.602;2024-03-02T09:17:02;4.50;;;4.20;;
357;SDS011;167;47.558;7.602;2024-03-02T09:19:29;5.60;;;5.20;;
357;SDS011;167;47.558;7.602;2024-03-02T09:21:55;4.93;;;4.60;;
357;SDS011;167;47.558;7.602;2024-03-02T09:24:21;5.00;;;4.60;;
357;SDS011;167;47.558;7.602;2024-03-02T09:26:47;5.33;;;5.00;;
357;SDS011;167;47.558;7.602;2024-03-02T09:29:13;4.40;;;4.10;;
357;SDS011;167;47.558;7.602;2024-03-02T09:31:40;4.70;;;4.40;;
357;SDS011;167;47.558;7.602;2024-03-02T09:34:06;4.20;;;3.93;;
357;SDS011;167;47.558;7.602;2024-03-02T09:36:32;6.30;;;5.70;;
357;SDS011;167;47.558;7.602;2024-03-02T09:38:58;4.70;;;4.40;;
357;SDS011;167;47.558;7.602;2024-03-02T09:41:24;4.50;;;4.10;;
357;SDS011;167;47.558;7.602;2024-03-02T09:43:50;4.90;;;4.60;;
357;SDS011;167;47.558;7.602;2024-03-02T09:46:16;5.00;;;4.70;;
357;SDS011;167;47.558;7.602;2024-03-02T09:48:46;6.27;;;5.87;;
357;SDS011;167;47.558;7.602;2024-03-02T09:51:12;7.60;;;7.10;;
357;SDS011;167;47.558;7.602;2024-03-02T09:53:39;7.87;;;7.37;;
357;SDS011;167;47.558;7.602;2024-03-02T09:56:05;6.20;;;5.80;;
357;SDS011;167;47.558;7.602;2024-03-02T09:58:31;6.50;;;6.10;;
357;SDS011;167;47.558;7.602;2024-03-02T10:00:57;6.80;;;6.50;;
357;SDS011;167;47.558;7.602;2024-03-02T10:03:23;5.53;;;5.23;;
357;SDS011;167;47.558;7.602;2024-03-02T10:05:49;4.90;;;4.67;;
357;SDS011;167;47.558;7.602;2024-03-02T10:08:16;3.77;;;3.67;;
357;SDS011;167;47.558;7.602;2024-03-02T10:10:42;3.93;;;3.73;;
357;SDS011;167;47.558;7.602;2024-03-02T10:13:09;3.53;;;3.27;;
357;SDS011;167;47.558;7.602;2024-03-02T10:15:35;5.10;;;4.87;;
357;SDS011;167;47.558;7.602;2024-03-02T10:18:11;4.23;;;4.03;;
357;SDS011;167;47.558;7.602;2024-03-02T10:20:37;3.43;;;3.33;;
357;SDS011;167;47.558;7.602;2024-03-02T10:23:37;3.83;;;3.63;;
357;SDS011;167;47.558;7.602;2024-03-02T10:25:56;3.50;;;3.40;;
357;SDS011;167;47.558;7.602;2024-03-02T10:28:22;3.23;;;3.13;;
357;SDS011;167;47.558;7.602;2024-03-02T10:30:48;3.33;;;3.13;;
357;SDS011;167;47.558;7.602;2024-03-02T10:33:17;2.90;;;2.80;;
357;SDS011;167;47.558;7.602;2024-03-02T10:35:43;3.00;;;2.90;;
357;SDS011;167;47.558;7.602;2024-03-02T10:38:09;3.13;;;2.93;;
357;SDS011;167;47.558;7.602;2024-03-02T10:40:36;3.00;;;2.83;;
357;SDS011;167;47.558;7.602;2024-03-02T10:43:02;2.73;;;2.63;;
357;SDS011;167;47.558;7.602;2024-03-02T10:45:30;3.10;;;2.90;;
357;SDS011;167;47.558;7.602;2024-03-02T10:47:56;3.50;;;3.30;;
357;SDS011;167;47.558;7.602;2024-03-02T10:50:22;2.67;;;2.47;;
357;SDS011;167;47.558;7.602;2024-03-02T10:52:49;3.47;;;3.27;;
357;SDS011;167;47.558;7.602;2024-03-02T10:55:15;3.00;;;2.80;;
357;SDS011;167;47.558;7.602;2024-03-02T10:57:44;2.30;;;2.20;;
357;SDS011;167;47.558;7.602;2024-03-02T11:00:15;2.70;;;2.60;;
357;SDS011;167;47.558;7.602;2024-03-02T11:02:42;2.40;;;2.30;;
357;SDS011;167;47.558;7.602;2024-03-02T11:05:12;2.40;;;2.30;;
357;SDS011;167;47.558;7.602;2024-03-02T11:07:40;2.00;;;1.90;;
357;SDS011;167;47.558;7.602;2024-03-02T11:10:06;2.23;;;2.13;;
357;SDS011;167;47.558;7.602;2024-03-02T11:12:43;2.33;;;2.23;;
357;SDS011;167;47.558;7.602;2024-03-02T11:15:12;1.97;;;1.87;;
357;SDS011;167;47.558;7.602;2024-03-02T11:17:40;2.17;;;2.07;;
357;SDS011;167;47.558;7.602;2024-03-02T11:20:07;2.20;;;2.10;;
357;SDS011;167;47.558;7.602;2024-03-02T11:22:34;3.50;;;3.00;;
357;SDS011;167;47.558;7.602;2024-03-02T11:25:01;2.83;;;2.73;;
357;SDS011;167;47.558;7.602;2024-03-02T11:32:56;3.53;;;2.50;;
357;SDS011;167;47.558;7.602;2024-03-02T11:35:23;2.27;;;2.17;;
357;SDS011;167;47.558;7.602;2024-03-02T11:37:50;3.00;;;2.90;;
357;SDS011;167;47.558;7.602;2024-03-02T11:40:21;2.97;;;2.77;;
357;SDS011;167;47.558;7.602;2024-03-02T11:42:47;2.17;;;2.07;;
357;SDS011;167;47.558;7.602;2024-03-02T11:45:16;2.47;;;2.37;;
357;SDS011;167;47.558;7.602;2024-03-02T11:47:46;3.27;;;2.23;;
357;SDS011;167;47.558;7.602;2024-03-02T11:50:12;2.03;;;1.77;;
357;SDS011;167;47.558;7.602;2024-03-02T11:52:38;2.37;;;2.27;;
357;SDS011;167;47.558;7.602;2024-03-02T11:55:07;2.70;;;1.90;;
357;SDS011;167;47.558;7.602;2024-03-02T11:57:34;1.80;;;1.70;;
357;SDS011;167;47.558;7.602;2024-03-02T12:00:00;2.00;;;1.90;;
357;SDS011;167;47.558;7.602;2024-03-02T12:02:28;1.60;;;1.53;;
357;SDS011;167;47.558;7.602;2024-03-02T12:04:54;1.63;;;1.53;;
357;SDS011;167;47.558;7.602;2024-03-02T12:07:22;2.03;;;1.93;;
357;SDS011;167;47.558;7.602;2024-03-02T12:09:49;1.80;;;1.70;;
357;SDS011;167;47.558;7.602;2024-03-02T12:12:15;2.03;;;1.93;;
357;SDS011;167;47.558;7.602;2024-03-02T12:14:50;2.80;;;2.60;;
357;SDS011;167;47.558;7.602;2024-03-02T12:17:17;2.17;;;2.07;;
357;SDS011;167;47.558;7.602;2024-03-02T12:19:43;2.90;;;2.80;;
357;SDS011;167;47.558;7.602;2024-03-02T12:22:11;2.93;;;2.17;;
357;SDS011;167;47.558;7.602;2024-03-02T12:24:37;2.60;;;2.40;;
357;SDS011;167;47.558;7.602;2024-03-02T12:27:03;2.73;;;2.53;;
357;SDS011;167;47.558;7.602;2024-03-02T12:29:30;3.10;;;2.90;;
357;SDS011;167;47.558;7.602;2024-03-02T12:31:56;3.13;;;2.93;;
357;SDS011;167;47.558;7.602;2024-03-02T12:34:22;2.50;;;2.30;;
357;SDS011;167;47.558;7.602;2024-03-02T12:36:48;2.80;;;2.53;;
357;SDS011;167;47.558;7.602;2024-03-02T12:39:17;3.50;;;3.00;;
357;SDS011;167;47.558;7.602;2024-03-02T12:41:44;2.83;;;2.63;;
357;SDS011;167;47.558;7.602;2024-03-02T12:44:10;2.93;;;2.80;;
357;SDS011;167;47.558;7.602;2024-03-02T12:46:36;3.33;;;3.07;;
357;SDS011;167;47.558;7.602;2024-03-02T12:49:09;2.47;;;2.37;;
357;SDS011;167;47.558;7.602;2024-03-02T12:51:36;2.43;;;2.33;;
357;SDS011;167;47.558;7.602;2024-03-02T12:54:02;2.53;;;2.43;;
357;SDS011;167;47.558;7.602;2024-03-02T12:56:30;3.03;;;2.83;;
357;SDS011;167;47.558;7.602;2024-03-02T12:58:56;3.17;;;2.97;;
357;SDS011;167;47.558;7.602;2024-03-02T13:01:22;3.47;;;3.20;;
357;SDS011;167;47.558;7.602;2024-03-02T13:03:49;3.53;;;3.23;;
357;SDS011;167;47.558;7.602;2024-03-02T13:06:16;2.47;;;2.37;;
357;SDS011;167;47.558;7.602;2024-03-02T13:08:42;2.97;;;2.77;;
357;SDS011;167;47.558;7.602;2024-03-02T13:11:09;2.60;;;2.40;;
357;SDS011;167;47.558;7.602;2024-03-02T13:13:35;2.07;;;1.97;;
357;SDS011;167;47.558;7.602;2024-03-02T13:16:01;2.63;;;2.43;;
357;SDS011;167;47.558;7.602;2024-03-02T13:18:28;3.30;;;3.10;;
357;SDS011;167;47.558;7.602;2024-03-02T13:20:56;2.23;;;2.13;;
357;SDS011;167;47.558;7.602;2024-03-02T13:23:22;2.80;;;2.60;;
357;SDS011;167;47.558;7.602;2024-03-02T13:25:48;2.17;;;2.07;;
357;SDS011;167;47.558;7.602;2024-03-02T13:28:14;3.40;;;2.20;;
357;SDS011;167;47.558;7.602;2024-03-02T13:30:40;1.93;;;1.83;;
357;SDS011;167;47.558;7.602;2024-03-02T13:33:06;2.43;;;1.80;;
357;SDS011;167;47.558;7.602;2024-03-02T13:35:32;1.63;;;1.53;;
357;SDS011;167;47.558;7.602;2024-03-02T13:37:58;2.10;;;2.00;;
357;SDS011;167;47.558;7.602;2024-03-02T13:40:24;1.80;;;1.70;;
357;SDS011;167;47.558;7.602;2024-03-02T13:42:50;1.90;;;1.80;;
357;SDS011;167;47.558;7.602;2024-03-02T13:45:18;1.77;;;1.67;;
357;SDS011;167;47.558;7.602;2024-03-02T13:47:44;2.20;;;2.00;;
357;SDS011;167;47.558;7.602;2024-03-02T13:50:10;1.80;;;1.70;;
357;SDS011;167;47.558;7.602;2024-03-02T13:52:36;1.57;;;1.50;;
357;SDS011;167;47.558;7.602;2024-03-02T13:55:02;2.10;;;2.00;;
357;SDS011;167;47.558;7.602;2024-03-02T13:57:29;1.93;;;1.60;;
357;SDS011;167;47.558;7.602;2024-03-02T13:59:55;1.70;;;1.60;;
357;SDS011;167;47.558;7.602;2024-03-02T14:02:21;2.00;;;1.90;;
357;SDS011;167;47.558;7.602;2024-03-02T14:04:48;1.60;;;1.60;;
357;SDS011;167;47.558;7.602;2024-03-02T14:07:15;1.70;;;1.60;;
357;SDS011;167;47.558;7.602;2024-03-02T14:09:41;1.70;;;1.60;;
357;SDS011;167;47.558;7.602;2024-03-02T14:12:07;1.57;;;1.57;;
357;SDS011;167;47.558;7.602;2024-03-02T14:14:33;1.07;;;1.07;;
357;SDS011;167;47.558;7.602;2024-03-02T14:16:59;1.10;;;1.10;;
357;SDS011;167;47.558;7.602;2024-03-02T14:19:29;1.73;;;1.63;;
357;SDS011;167;47.558;7.602;2024-03-02T14:21:55;1.70;;;1.60;;
357;SDS011;167;47.558;7.602;2024-03-02T14:24:21;0.90;;;0.90;;
357;SDS011;167;47.558;7.602;2024-03-02T14:26:51;1.10;;;1.10;;
357;SDS011;167;47.558;7.602;2024-03-02T14:29:18;1.63;;;1.13;;
357;SDS011;167;47.558;7.602;2024-03-02T14:31:44;1.10;;;1.00;;
357;SDS011;167;47.558;7.602;2024-03-02T14:34:13;1.40;;;1.30;;
357;SDS011;167;47.558;7.602;2024-03-02T14:36:39;1.60;;;1.50;;
357;SDS011;167;47.558;7.602;2024-03-02T14:39:05;1.40;;;1.40;;
357;SDS011;167;47.558;7.602;2024-03-02T14:41:35;1.80;;;1.70;;
357;SDS011;167;47.558;7.602;2024-03-02T14:44:01;1.33;;;1.13;;
357;SDS011;167;47.558;7.602;2024-03-02T14:46:27;1.40;;;1.30;;
357;SDS011;167;47.558;7.602;2024-03-02T14:48:53;1.30;;;1.30;;
357;SDS011;167;47.558;7.602;2024-03-02T14:51:19;1.53;;;1.43;;
357;SDS011;167;47.558;7.602;2024-03-02T14:53:45;1.70;;;1.60;;
357;SDS011;167;47.558;7.602;2024-03-02T14:56:11;1.87;;;1.77;;
357;SDS011;167;47.558;7.602;2024-03-02T14:58:38;1.03;;;1.03;;
357;SDS011;167;47.558;7.602;2024-03-02T15:01:05;1.70;;;1.60;;
357;SDS011;167;47.558;7.602;2024-03-02T15:03:31;1.50;;;1.40;;
357;SDS011;167;47.558;7.602;2024-03-02T15:05:57;1.10;;;1.10;;
357;SDS011;167;47.558;7.602;2024-03-02T15:08:23;1.63;;;1.53;;
357;SDS011;167;47.558;7.602;2024-03-02T15:10:49;1.30;;;1.30;;
357;SDS011;167;47.558;7.602;2024-03-02T15:13:15;2.53;;;1.50;;
357;SDS011;167;47.558;7.602;2024-03-02T15:15:41;1.70;;;1.60;;
357;SDS011;167;47.558;7.602;2024-03-02T15:18:07;1.13;;;1.13;;
357;SDS011;167;47.558;7.602;2024-03-02T15:20:34;1.43;;;1.33;;
357;SDS011;167;47.558;7.602;2024-03-02T15:23:00;2.20;;;1.57;;
357;SDS011;167;47.558;7.602;2024-03-02T15:25:26;1.60;;;1.50;;
357;SDS011;167;47.558;7.602;2024-03-02T15:27:52;1.57;;;1.47;;
357;SDS011;167;47.558;7.602;2024-03-02T15:30:18;1.63;;;1.50;;
357;SDS011;167;47.558;7.602;2024-03-02T15:32:44;1.33;;;1.33;;
357;SDS011;167;47.558;7.602;2024-03-02T15:35:10;1.57;;;1.50;;
357;SDS011;167;47.558;7.602;2024-03-02T15:37:36;1.40;;;1.30;;
357;SDS011;167;47.558;7.602;2024-03-02T15:40:02;2.20;;;1.63;;
357;SDS011;167;47.558;7.602;2024-03-02T15:42:32;2.07;;;1.97;;
357;SDS011;167;47.558;7.602;2024-03-02T15:44:58;1.27;;;1.20;;
357;SDS011;167;47.558;7.602;2024-03-02T15:47:24;2.80;;;1.53;;
357;SDS011;167;47.558;7.602;2024-03-02T15:49:50;1.50;;;1.20;;
357;SDS011;167;47.558;7.602;2024-03-02T15:52:16;1.30;;;1.30;;